sensor_id;sensor_type;location;lat;lon;timestamp;P1;durP1;ratioP1;P2;durP2;ratioP2
37529;SDS011;23374;52.758;6.872;2024-02-15T00:01:28;33.77;;;14.13;;
37529;SDS011;23374;52.758;6.872;2024-02-15T00:03:49;35.97;;;12.60;;
37529;SDS011;23374;52.758;6.872;2024-02-15T00:06:11;35.73;;;14.33;;
37529;SDS011;23374;52.758;6.872;2024-02-15T00:08:32;31.33;;;13.80;;
37529;SDS011;23374;52.758;6.872;2024-02-15T00:10:54;35.43;;;14.10;;
37529;SDS011;23374;52.758;6.872;2024-02-15T00:13:15;30.17;;;12.67;;
37529;SDS011;23374;52.758;6.872;2024-02-15T00:15:35;38.23;;;12.40;;
37529;SDS011;23374;52.758;6.872;2024-02-15T00:17:56;32.50;;;12.53;;
37529;SDS011;23374;52.758;6.872;2024-02-15T00:20:16;30.43;;;12.40;;
37529;SDS011;23374;52.758;6.872;2024-02-15T00:22:37;30.67;;;11.53;;
37529;SDS011;23374;52.758;6.872;2024-02-15T00:24:58;31.27;;;12.47;;
37529;SDS011;23374;52.758;6.872;2024-02-15T00:27:19;29.77;;;11.47;;
37529;SDS011;23374;52.758;6.872;2024-02-15T00:29:40;33.73;;;10.20;;
37529;SDS011;23374;52.758;6.872;2024-02-15T00:32:03;28.87;;;9.83;;
37529;SDS011;23374;52.758;6.872;2024-02-15T00:34:26;20.40;;;9.47;;
37529;SDS011;23374;52.758;6.872;2024-02-15T00:36:46;18.23;;;8.30;;
37529;SDS011;23374;52.758;6.872;2024-02-15T00:39:07;25.40;;;9.20;;
37529;SDS011;23374;52.758;6.872;2024-02-15T00:41:27;28.10;;;9.10;;
37529;SDS011;23374;52.758;6.872;2024-02-15T00:45:19;26.97;;;8.30;;
37529;SDS011;23374;52.758;6.872;2024-02-15T00:47:39;27.53;;;8.20;;
37529;SDS011;23374;52.758;6.872;2024-02-15T00:50:02;22.33;;;8.63;;
37529;SDS011;23374;52.758;6.872;2024-02-15T00:52:23;21.47;;;8.30;;
37529;SDS011;23374;52.758;6.872;2024-02-15T00:54:48;22.93;;;8.43;;
37529;SDS011;23374;52.758;6.872;2024-02-15T00:57:08;22.93;;;8.00;;
37529;SDS011;23374;52.758;6.872;2024-02-15T00:59:28;20.17;;;8.67;;
37529;SDS011;23374;52.758;6.872;2024-02-15T01:01:49;30.53;;;8.47;;
37529;SDS011;23374;52.758;6.872;2024-02-15T01:04:10;29.90;;;8.80;;
37529;SDS011;23374;52.758;6.872;2024-02-15T01:06:32;16.17;;;7.97;;
37529;SDS011;23374;52.758;6.872;2024-02-15T01:08:53;26.20;;;8.57;;
37529;SDS011;23374;52.758;6.872;2024-02-15T01:11:14;26.13;;;9.20;;
37529;SDS011;23374;52.758;6.872;2024-02-15T01:13:34;22.00;;;8.33;;
37529;SDS011;23374;52.758;6.872;2024-02-15T01:15:55;25.77;;;8.20;;
37529;SDS011;23374;52.758;6.872;2024-02-15T01:18:15;27.77;;;9.00;;
37529;SDS011;23374;52.758;6.872;2024-02-15T01:20:36;23.33;;;8.33;;
37529;SDS011;23374;52.758;6.872;2024-02-15T01:22:56;26.30;;;8.63;;
37529;SDS011;23374;52.758;6.872;2024-02-15T01:25:17;32.33;;;9.47;;
37529;SDS011;23374;52.758;6.872;2024-02-15T01:27:38;28.43;;;9.13;;
37529;SDS011;23374;52.758;6.872;2024-02-15T01:29:59;28.50;;;9.03;;
37529;SDS011;23374;52.758;6.872;2024-02-15T01:32:20;33.70;;;9.10;;
37529;SDS011;23374;52.758;6.872;2024-02-15T01:34:40;30.70;;;9.47;;
37529;SDS011;23374;52.758;6.872;2024-02-15T01:37:02;33.63;;;9.90;;
37529;SDS011;23374;52.758;6.872;2024-02-15T01:39:23;24.50;;;8.87;;
37529;SDS011;23374;52.758;6.872;2024-02-15T01:41:49;34.77;;;9.80;;
37529;SDS011;23374;52.758;6.872;2024-02-15T01:44:10;27.20;;;9.87;;
37529;SDS011;23374;52.758;6.872;2024-02-15T01:46:31;33.70;;;8.77;;
37529;SDS011;23374;52.758;6.872;2024-02-15T01:48:53;34.70;;;10.17;;
37529;SDS011;23374;52.758;6.872;2024-02-15T01:51:16;23.00;;;8.90;;
37529;SDS011;23374;52.758;6.872;2024-02-15T01:53:38;23.27;;;10.17;;
37529;SDS011;23374;52.758;6.872;2024-02-15T01:56:00;24.67;;;8.00;;
37529;SDS011;23374;52.758;6.872;2024-02-15T01:58:21;29.43;;;9.60;;
37529;SDS011;23374;52.758;6.872;2024-02-15T02:00:42;31.00;;;10.50;;
37529;SDS011;23374;52.758;6.872;2024-02-15T02:03:02;31.67;;;9.27;;
37529;SDS011;23374;52.758;6.872;2024-02-15T02:05:22;28.07;;;9.70;;
37529;SDS011;23374;52.758;6.872;2024-02-15T02:07:43;28.60;;;9.70;;
37529;SDS011;23374;52.758;6.872;2024-02-15T02:10:04;25.90;;;9.83;;
37529;SDS011;23374;52.758;6.872;2024-02-15T02:12:25;23.20;;;9.80;;
37529;SDS011;23374;52.758;6.872;2024-02-15T02:14:49;22.47;;;10.10;;
37529;SDS011;23374;52.758;6.872;2024-02-15T02:17:11;28.87;;;10.20;;
37529;SDS011;23374;52.758;6.872;2024-02-15T02:19:35;30.73;;;9.47;;
37529;SDS011;23374;52.758;6.872;2024-02-15T02:21:58;30.60;;;9.83;;
37529;SDS011;23374;52.758;6.872;2024-02-15T02:24:21;28.10;;;9.83;;
37529;SDS011;23374;52.758;6.872;2024-02-15T02:26:42;23.27;;;9.57;;
37529;SDS011;23374;52.758;6.872;2024-02-15T02:29:03;22.70;;;9.47;;
37529;SDS011;23374;52.758;6.872;2024-02-15T02:31:26;26.10;;;9.30;;
37529;SDS011;23374;52.758;6.872;2024-02-15T02:33:49;20.97;;;9.07;;
37529;SDS011;23374;52.758;6.872;2024-02-15T02:36:11;26.30;;;8.77;;
37529;SDS011;23374;52.758;6.872;2024-02-15T02:38:32;27.43;;;9.10;;
37529;SDS011;23374;52.758;6.872;2024-02-15T02:40:52;22.40;;;8.80;;
37529;SDS011;23374;52.758;6.872;2024-02-15T02:43:12;22.93;;;9.43;;
37529;SDS011;23374;52.758;6.872;2024-02-15T02:46:51;28.53;;;9.33;;
37529;SDS011;23374;52.758;6.872;2024-02-15T02:49:12;28.37;;;10.87;;
37529;SDS011;23374;52.758;6.872;2024-02-15T02:51:32;22.27;;;9.97;;
37529;SDS011;23374;52.758;6.872;2024-02-15T02:53:52;24.17;;;10.60;;
37529;SDS011;23374;52.758;6.872;2024-02-15T02:56:13;24.17;;;11.30;;
37529;SDS011;23374;52.758;6.872;2024-02-15T02:58:33;28.63;;;11.20;;
37529;SDS011;23374;52.758;6.872;2024-02-15T03:00:53;29.77;;;12.97;;
37529;SDS011;23374;52.758;6.872;2024-02-15T03:03:13;33.83;;;12.63;;
37529;SDS011;23374;52.758;6.872;2024-02-15T03:05:35;26.50;;;11.97;;
37529;SDS011;23374;52.758;6.872;2024-02-15T03:07:55;29.50;;;12.53;;
37529;SDS011;23374;52.758;6.872;2024-02-15T03:10:16;38.87;;;13.50;;
37529;SDS011;23374;52.758;6.872;2024-02-15T03:12:38;29.97;;;12.27;;
37529;SDS011;23374;52.758;6.872;2024-02-15T03:14:58;35.40;;;13.27;;
37529;SDS011;23374;52.758;6.872;2024-02-15T03:17:18;27.00;;;11.73;;
37529;SDS011;23374;52.758;6.872;2024-02-15T03:19:39;32.30;;;12.77;;
37529;SDS011;23374;52.758;6.872;2024-02-15T03:22:00;31.83;;;12.53;;
37529;SDS011;23374;52.758;6.872;2024-02-15T03:24:21;29.53;;;11.83;;
37529;SDS011;23374;52.758;6.872;2024-02-15T03:26:41;29.53;;;11.83;;
37529;SDS011;23374;52.758;6.872;2024-02-15T03:29:03;23.70;;;10.93;;
37529;SDS011;23374;52.758;6.872;2024-02-15T03:31:24;36.33;;;13.30;;
37529;SDS011;23374;52.758;6.872;2024-02-15T03:33:44;27.73;;;11.07;;
37529;SDS011;23374;52.758;6.872;2024-02-15T03:36:04;27.60;;;12.07;;
37529;SDS011;23374;52.758;6.872;2024-02-15T03:38:25;30.63;;;11.20;;
37529;SDS011;23374;52.758;6.872;2024-02-15T03:40:46;26.80;;;10.63;;
37529;SDS011;23374;52.758;6.872;2024-02-15T03:43:08;30.50;;;10.90;;
37529;SDS011;23374;52.758;6.872;2024-02-15T03:45:28;30.80;;;11.00;;
37529;SDS011;23374;52.758;6.872;2024-02-15T03:47:48;28.80;;;9.80;;
37529;SDS011;23374;52.758;6.872;2024-02-15T03:50:10;21.70;;;9.50;;
37529;SDS011;23374;52.758;6.872;2024-02-15T03:52:31;23.97;;;9.93;;
37529;SDS011;23374;52.758;6.872;2024-02-15T03:54:52;25.87;;;9.47;;
37529;SDS011;23374;52.758;6.872;2024-02-15T03:57:13;25.67;;;9.63;;
37529;SDS011;23374;52.758;6.872;2024-02-15T03:59:36;23.87;;;10.30;;
37529;SDS011;23374;52.758;6.872;2024-02-15T04:01:57;29.37;;;9.83;;
37529;SDS011;23374;52.758;6.872;2024-02-15T04:04:18;29.83;;;9.90;;
37529;SDS011;23374;52.758;6.872;2024-02-15T04:06:40;24.70;;;9.83;;
37529;SDS011;23374;52.758;6.872;2024-02-15T04:09:01;33.23;;;10.73;;
37529;SDS011;23374;52.758;6.872;2024-02-15T04:11:22;34.23;;;11.57;;
37529;SDS011;23374;52.758;6.872;2024-02-15T04:13:42;30.33;;;10.27;;
37529;SDS011;23374;52.758;6.872;2024-02-15T04:16:03;25.97;;;11.13;;
37529;SDS011;23374;52.758;6.872;2024-02-15T04:18:24;35.53;;;10.90;;
37529;SDS011;23374;52.758;6.872;2024-02-15T04:20:44;31.03;;;10.80;;
37529;SDS011;23374;52.758;6.872;2024-02-15T04:23:06;34.17;;;11.30;;
37529;SDS011;23374;52.758;6.872;2024-02-15T04:25:26;30.23;;;10.87;;
37529;SDS011;23374;52.758;6.872;2024-02-15T04:27:48;28.67;;;12.30;;
37529;SDS011;23374;52.758;6.872;2024-02-15T04:30:09;27.83;;;12.67;;
37529;SDS011;23374;52.758;6.872;2024-02-15T04:32:30;33.60;;;12.27;;
37529;SDS011;23374;52.758;6.872;2024-02-15T04:34:53;34.13;;;12.37;;
37529;SDS011;23374;52.758;6.872;2024-02-15T04:37:13;34.87;;;13.43;;
37529;SDS011;23374;52.758;6.872;2024-02-15T04:39:37;34.93;;;12.77;;
37529;SDS011;23374;52.758;6.872;2024-02-15T04:41:58;31.07;;;12.30;;
37529;SDS011;23374;52.758;6.872;2024-02-15T04:44:18;33.63;;;13.97;;
37529;SDS011;23374;52.758;6.872;2024-02-15T04:46:42;33.43;;;14.37;;
37529;SDS011;23374;52.758;6.872;2024-02-15T04:49:05;29.40;;;12.37;;
37529;SDS011;23374;52.758;6.872;2024-02-15T04:51:27;33.57;;;13.50;;
37529;SDS011;23374;52.758;6.872;2024-02-15T04:53:48;34.50;;;14.00;;
37529;SDS011;23374;52.758;6.872;2024-02-15T04:56:09;38.50;;;14.67;;
37529;SDS011;23374;52.758;6.872;2024-02-15T04:58:33;34.87;;;15.20;;
37529;SDS011;23374;52.758;6.872;2024-02-15T05:00:56;31.27;;;13.93;;
37529;SDS011;23374;52.758;6.872;2024-02-15T05:03:19;33.97;;;14.33;;
37529;SDS011;23374;52.758;6.872;2024-02-15T05:05:39;38.80;;;14.83;;
37529;SDS011;23374;52.758;6.872;2024-02-15T05:07:59;33.87;;;14.60;;
37529;SDS011;23374;52.758;6.872;2024-02-15T05:10:21;35.70;;;13.80;;
37529;SDS011;23374;52.758;6.872;2024-02-15T05:12:41;30.57;;;13.87;;
37529;SDS011;23374;52.758;6.872;2024-02-15T05:15:08;31.33;;;14.17;;
37529;SDS011;23374;52.758;6.872;2024-02-15T05:17:32;28.43;;;13.70;;
37529;SDS011;23374;52.758;6.872;2024-02-15T05:19:53;31.40;;;13.80;;
37529;SDS011;23374;52.758;6.872;2024-02-15T05:22:13;31.27;;;13.93;;
37529;SDS011;23374;52.758;6.872;2024-02-15T05:24:34;25.77;;;13.27;;
37529;SDS011;23374;52.758;6.872;2024-02-15T05:26:55;29.23;;;12.40;;
37529;SDS011;23374;52.758;6.872;2024-02-15T05:29:16;27.27;;;12.40;;
37529;SDS011;23374;52.758;6.872;2024-02-15T05:31:36;30.03;;;12.73;;
37529;SDS011;23374;52.758;6.872;2024-02-15T05:33:57;32.47;;;12.27;;
37529;SDS011;23374;52.758;6.872;2024-02-15T05:36:18;24.37;;;11.13;;
37529;SDS011;23374;52.758;6.872;2024-02-15T05:38:40;25.20;;;12.23;;
37529;SDS011;23374;52.758;6.872;2024-02-15T05:41:05;25.83;;;11.80;;
37529;SDS011;23374;52.758;6.872;2024-02-15T05:43:27;25.27;;;11.50;;
37529;SDS011;23374;52.758;6.872;2024-02-15T05:45:48;22.73;;;10.80;;
37529;SDS011;23374;52.758;6.872;2024-02-15T05:48:09;26.40;;;12.03;;
37529;SDS011;23374;52.758;6.872;2024-02-15T05:50:32;27.03;;;12.13;;
37529;SDS011;23374;52.758;6.872;2024-02-15T05:52:53;23.90;;;11.30;;
37529;SDS011;23374;52.758;6.872;2024-02-15T05:55:15;23.03;;;11.63;;
37529;SDS011;23374;52.758;6.872;2024-02-15T05:57:36;27.00;;;10.30;;
37529;SDS011;23374;52.758;6.872;2024-02-15T05:59:56;20.53;;;10.10;;
37529;SDS011;23374;52.758;6.872;2024-02-15T06:02:21;20.57;;;10.07;;
37529;SDS011;23374;52.758;6.872;2024-02-15T06:04:41;23.40;;;10.63;;
37529;SDS011;23374;52.758;6.872;2024-02-15T06:07:02;24.57;;;10.57;;
37529;SDS011;23374;52.758;6.872;2024-02-15T06:09:22;19.73;;;9.93;;
37529;SDS011;23374;52.758;6.872;2024-02-15T06:11:54;20.63;;;9.23;;
37529;SDS011;23374;52.758;6.872;2024-02-15T06:14:16;18.60;;;9.33;;
37529;SDS011;23374;52.758;6.872;2024-02-15T06:16:43;17.90;;;9.23;;
37529;SDS011;23374;52.758;6.872;2024-02-15T06:19:04;17.47;;;9.27;;
37529;SDS011;23374;52.758;6.872;2024-02-15T06:21:24;21.13;;;9.87;;
37529;SDS011;23374;52.758;6.872;2024-02-15T06:23:44;19.33;;;9.47;;
37529;SDS011;23374;52.758;6.872;2024-02-15T06:26:05;14.73;;;8.33;;
37529;SDS011;23374;52.758;6.872;2024-02-15T06:28:26;24.97;;;9.27;;
37529;SDS011;23374;52.758;6.872;2024-02-15T06:31:09;20.13;;;9.73;;
37529;SDS011;23374;52.758;6.872;2024-02-15T06:33:49;28.90;;;8.90;;
37529;SDS011;23374;52.758;6.872;2024-02-15T06:36:28;16.23;;;8.33;;
37529;SDS011;23374;52.758;6.872;2024-02-15T06:41:24;18.07;;;8.47;;
37529;SDS011;23374;52.758;6.872;2024-02-15T06:43:46;13.27;;;7.67;;
37529;SDS011;23374;52.758;6.872;2024-02-15T06:46:06;22.13;;;8.87;;
37529;SDS011;23374;52.758;6.872;2024-02-15T06:48:28;17.47;;;8.00;;
37529;SDS011;23374;52.758;6.872;2024-02-15T06:50:48;17.30;;;8.23;;
37529;SDS011;23374;52.758;6.872;2024-02-15T06:53:09;16.67;;;7.67;;
37529;SDS011;23374;52.758;6.872;2024-02-15T06:55:29;15.03;;;7.80;;
37529;SDS011;23374;52.758;6.872;2024-02-15T06:57:50;16.27;;;9.23;;
37529;SDS011;23374;52.758;6.872;2024-02-15T07:00:10;15.20;;;7.90;;
37529;SDS011;23374;52.758;6.872;2024-02-15T07:02:35;17.73;;;7.33;;
37529;SDS011;23374;52.758;6.872;2024-02-15T07:04:56;22.93;;;8.60;;
37529;SDS011;23374;52.758;6.872;2024-02-15T07:07:17;17.47;;;7.93;;
37529;SDS011;23374;52.758;6.872;2024-02-15T07:09:37;18.67;;;7.97;;
37529;SDS011;23374;52.758;6.872;2024-02-15T07:11:59;16.00;;;7.77;;
37529;SDS011;23374;52.758;6.872;2024-02-15T07:14:19;17.30;;;7.53;;
37529;SDS011;23374;52.758;6.872;2024-02-15T07:16:39;14.00;;;7.57;;
37529;SDS011;23374;52.758;6.872;2024-02-15T07:19:03;13.77;;;7.90;;
37529;SDS011;23374;52.758;6.872;2024-02-15T07:21:24;18.23;;;8.23;;
37529;SDS011;23374;52.758;6.872;2024-02-15T07:23:46;16.90;;;7.63;;
37529;SDS011;23374;52.758;6.872;2024-02-15T07:26:07;25.70;;;9.07;;
37529;SDS011;23374;52.758;6.872;2024-02-15T07:28:28;18.57;;;8.63;;
37529;SDS011;23374;52.758;6.872;2024-02-15T07:30:52;16.33;;;8.77;;
37529;SDS011;23374;52.758;6.872;2024-02-15T07:33:14;24.53;;;8.57;;
37529;SDS011;23374;52.758;6.872;2024-02-15T07:35:37;16.47;;;8.57;;
37529;SDS011;23374;52.758;6.872;2024-02-15T07:37:58;15.53;;;8.70;;
37529;SDS011;23374;52.758;6.872;2024-02-15T07:40:21;20.40;;;8.90;;
37529;SDS011;23374;52.758;6.872;2024-02-15T07:42:42;17.10;;;8.07;;
37529;SDS011;23374;52.758;6.872;2024-02-15T07:45:03;17.77;;;8.90;;
37529;SDS011;23374;52.758;6.872;2024-02-15T07:47:26;15.50;;;8.63;;
37529;SDS011;23374;52.758;6.872;2024-02-15T07:49:50;17.17;;;8.50;;
37529;SDS011;23374;52.758;6.872;2024-02-15T07:52:11;24.00;;;9.10;;
37529;SDS011;23374;52.758;6.872;2024-02-15T07:54:33;15.83;;;7.97;;
37529;SDS011;23374;52.758;6.872;2024-02-15T07:56:53;18.20;;;8.50;;
37529;SDS011;23374;52.758;6.872;2024-02-15T07:59:14;15.77;;;7.37;;
37529;SDS011;23374;52.758;6.872;2024-02-15T08:01:40;13.50;;;7.07;;
37529;SDS011;23374;52.758;6.872;2024-02-15T08:04:00;12.53;;;6.90;;
37529;SDS011;23374;52.758;6.872;2024-02-15T08:06:21;19.30;;;7.20;;
37529;SDS011;23374;52.758;6.872;2024-02-15T08:08:46;12.53;;;7.17;;
37529;SDS011;23374;52.758;6.872;2024-02-15T08:11:09;14.40;;;6.87;;
37529;SDS011;23374;52.758;6.872;2024-02-15T08:13:35;12.70;;;7.00;;
37529;SDS011;23374;52.758;6.872;2024-02-15T08:15:58;12.47;;;6.47;;
37529;SDS011;23374;52.758;6.872;2024-02-15T08:18:18;14.47;;;6.60;;
37529;SDS011;23374;52.758;6.872;2024-02-15T08:20:40;12.70;;;5.77;;
37529;SDS011;23374;52.758;6.872;2024-02-15T08:23:00;14.60;;;6.27;;
37529;SDS011;23374;52.758;6.872;2024-02-15T08:25:20;9.47;;;5.83;;
37529;SDS011;23374;52.758;6.872;2024-02-15T08:27:40;11.63;;;5.70;;
37529;SDS011;23374;52.758;6.872;2024-02-15T08:30:06;15.77;;;7.00;;
37529;SDS011;23374;52.758;6.872;2024-02-15T08:32:28;9.63;;;5.73;;
37529;SDS011;23374;52.758;6.872;2024-02-15T08:34:48;14.77;;;6.73;;
37529;SDS011;23374;52.758;6.872;2024-02-15T08:37:10;12.53;;;6.27;;
37529;SDS011;23374;52.758;6.872;2024-02-15T08:39:30;8.83;;;6.00;;
37529;SDS011;23374;52.758;6.872;2024-02-15T08:41:51;11.10;;;6.67;;
37529;SDS011;23374;52.758;6.872;2024-02-15T08:44:12;10.67;;;6.27;;
37529;SDS011;23374;52.758;6.872;2024-02-15T08:46:35;11.50;;;6.17;;
37529;SDS011;23374;52.758;6.872;2024-02-15T08:48:56;12.87;;;7.00;;
37529;SDS011;23374;52.758;6.872;2024-02-15T08:51:16;14.10;;;6.57;;
37529;SDS011;23374;52.758;6.872;2024-02-15T08:53:37;13.47;;;6.37;;
37529;SDS011;23374;52.758;6.872;2024-02-15T08:55:58;13.60;;;6.40;;
37529;SDS011;23374;52.758;6.872;2024-02-15T08:58:19;10.63;;;5.77;;
37529;SDS011;23374;52.758;6.872;2024-02-15T09:00:41;7.67;;;5.57;;
37529;SDS011;23374;52.758;6.872;2024-02-15T09:03:04;12.00;;;5.77;;
37529;SDS011;23374;52.758;6.872;2024-02-15T09:05:26;13.20;;;5.33;;
37529;SDS011;23374;52.758;6.872;2024-02-15T09:07:47;9.87;;;5.43;;
37529;SDS011;23374;52.758;6.872;2024-02-15T09:10:08;9.00;;;4.73;;
37529;SDS011;23374;52.758;6.872;2024-02-15T09:12:32;7.97;;;4.80;;
37529;SDS011;23374;52.758;6.872;2024-02-15T09:14:52;9.43;;;5.57;;
37529;SDS011;23374;52.758;6.872;2024-02-15T09:17:13;10.03;;;5.40;;
37529;SDS011;23374;52.758;6.872;2024-02-15T09:19:34;11.10;;;5.73;;
37529;SDS011;23374;52.758;6.872;2024-02-15T09:21:55;8.53;;;5.00;;
37529;SDS011;23374;52.758;6.872;2024-02-15T09:24:16;11.43;;;5.20;;
37529;SDS011;23374;52.758;6.872;2024-02-15T09:26:36;9.00;;;5.23;;
37529;SDS011;23374;52.758;6.872;2024-02-15T09:28:56;11.77;;;5.53;;
37529;SDS011;23374;52.758;6.872;2024-02-15T09:31:16;13.47;;;6.10;;
37529;SDS011;23374;52.758;6.872;2024-02-15T09:33:37;9.50;;;5.17;;
37529;SDS011;23374;52.758;6.872;2024-02-15T09:35:57;10.83;;;6.03;;
37529;SDS011;23374;52.758;6.872;2024-02-15T09:38:17;10.57;;;5.70;;
37529;SDS011;23374;52.758;6.872;2024-02-15T09:40:40;10.60;;;5.57;;
37529;SDS011;23374;52.758;6.872;2024-02-15T09:43:00;12.13;;;5.70;;
37529;SDS011;23374;52.758;6.872;2024-02-15T09:45:21;10.30;;;5.33;;
37529;SDS011;23374;52.758;6.872;2024-02-15T09:47:44;6.93;;;4.73;;
37529;SDS011;23374;52.758;6.872;2024-02-15T09:50:08;7.63;;;4.17;;
37529;SDS011;23374;52.758;6.872;2024-02-15T09:52:39;8.30;;;4.20;;
37529;SDS011;23374;52.758;6.872;2024-02-15T09:55:00;6.73;;;4.27;;
37529;SDS011;23374;52.758;6.872;2024-02-15T09:57:23;5.53;;;3.60;;
37529;SDS011;23374;52.758;6.872;2024-02-15T09:59:47;7.20;;;3.90;;
37529;SDS011;23374;52.758;6.872;2024-02-15T10:02:08;8.33;;;4.07;;
37529;SDS011;23374;52.758;6.872;2024-02-15T10:04:31;5.83;;;3.70;;
37529;SDS011;23374;52.758;6.872;2024-02-15T10:06:54;6.27;;;3.53;;
37529;SDS011;23374;52.758;6.872;2024-02-15T10:09:27;5.70;;;3.50;;
37529;SDS011;23374;52.758;6.872;2024-02-15T10:11:53;5.63;;;3.50;;
37529;SDS011;23374;52.758;6.872;2024-02-15T10:14:15;5.53;;;3.33;;
37529;SDS011;23374;52.758;6.872;2024-02-15T10:16:36;9.60;;;3.20;;
37529;SDS011;23374;52.758;6.872;2024-02-15T10:19:08;9.23;;;3.53;;
37529;SDS011;23374;52.758;6.872;2024-02-15T10:21:30;5.03;;;3.17;;
37529;SDS011;23374;52.758;6.872;2024-02-15T10:24:04;5.30;;;3.27;;
37529;SDS011;23374;52.758;6.872;2024-02-15T10:26:26;5.63;;;3.33;;
37529;SDS011;23374;52.758;6.872;2024-02-15T10:29:04;5.20;;;3.27;;
37529;SDS011;23374;52.758;6.872;2024-02-15T10:31:28;3.93;;;3.07;;
37529;SDS011;23374;52.758;6.872;2024-02-15T10:33:48;4.73;;;3.00;;
37529;SDS011;23374;52.758;6.872;2024-02-15T10:36:10;6.70;;;3.30;;
37529;SDS011;23374;52.758;6.872;2024-02-15T10:38:31;4.30;;;2.90;;
37529;SDS011;23374;52.758;6.872;2024-02-15T10:41:02;8.03;;;3.67;;
37529;SDS011;23374;52.758;6.872;2024-02-15T10:43:26;5.10;;;3.63;;
37529;SDS011;23374;52.758;6.872;2024-02-15T10:45:46;5.30;;;3.53;;
37529;SDS011;23374;52.758;6.872;2024-02-15T10:48:09;6.20;;;3.67;;
37529;SDS011;23374;52.758;6.872;2024-02-15T10:50:30;4.80;;;3.03;;
37529;SDS011;23374;52.758;6.872;2024-02-15T10:52:57;5.97;;;3.57;;
37529;SDS011;23374;52.758;6.872;2024-02-15T10:58:05;4.10;;;2.93;;
37529;SDS011;23374;52.758;6.872;2024-02-15T11:00:26;3.80;;;2.87;;
37529;SDS011;23374;52.758;6.872;2024-02-15T11:03:01;3.80;;;2.20;;
37529;SDS011;23374;52.758;6.872;2024-02-15T11:05:24;5.33;;;3.30;;
37529;SDS011;23374;52.758;6.872;2024-02-15T11:07:45;3.40;;;2.40;;
37529;SDS011;23374;52.758;6.872;2024-02-15T11:10:09;3.03;;;1.70;;
37529;SDS011;23374;52.758;6.872;2024-02-15T11:12:30;3.53;;;2.33;;
37529;SDS011;23374;52.758;6.872;2024-02-15T11:14:50;4.20;;;2.40;;
37529;SDS011;23374;52.758;6.872;2024-02-15T11:17:44;3.97;;;2.13;;
37529;SDS011;23374;52.758;6.872;2024-02-15T11:20:09;4.50;;;2.70;;
37529;SDS011;23374;52.758;6.872;2024-02-15T11:23:05;2.70;;;2.23;;
37529;SDS011;23374;52.758;6.872;2024-02-15T11:25:36;3.93;;;2.67;;
37529;SDS011;23374;52.758;6.872;2024-02-15T11:28:14;3.50;;;2.13;;
37529;SDS011;23374;52.758;6.872;2024-02-15T11:30:56;3.70;;;2.60;;
37529;SDS011;23374;52.758;6.872;2024-02-15T11:33:35;3.40;;;2.27;;
37529;SDS011;23374;52.758;6.872;2024-02-15T11:36:32;3.63;;;2.57;;
37529;SDS011;23374;52.758;6.872;2024-02-15T11:38:55;3.40;;;2.90;;
37529;SDS011;23374;52.758;6.872;2024-02-15T11:41:18;4.53;;;2.77;;
37529;SDS011;23374;52.758;6.872;2024-02-15T11:43:50;4.83;;;3.10;;
37529;SDS011;23374;52.758;6.872;2024-02-15T11:46:21;3.27;;;2.60;;
37529;SDS011;23374;52.758;6.872;2024-02-15T11:48:48;3.73;;;2.60;;
37529;SDS011;23374;52.758;6.872;2024-02-15T11:51:09;4.37;;;2.90;;
37529;SDS011;23374;52.758;6.872;2024-02-15T11:53:31;6.10;;;2.60;;
37529;SDS011;23374;52.758;6.872;2024-02-15T11:55:59;6.27;;;3.10;;
37529;SDS011;23374;52.758;6.872;2024-02-15T11:58:21;5.23;;;2.80;;
37529;SDS011;23374;52.758;6.872;2024-02-15T12:00:48;4.73;;;2.83;;
37529;SDS011;23374;52.758;6.872;2024-02-15T12:03:28;5.63;;;2.80;;
37529;SDS011;23374;52.758;6.872;2024-02-15T12:06:07;6.97;;;2.90;;
37529;SDS011;23374;52.758;6.872;2024-02-15T12:08:47;5.60;;;3.00;;
37529;SDS011;23374;52.758;6.872;2024-02-15T12:11:27;5.27;;;2.63;;
37529;SDS011;23374;52.758;6.872;2024-02-15T12:14:06;4.13;;;2.97;;
37529;SDS011;23374;52.758;6.872;2024-02-15T12:17:10;4.83;;;2.80;;
37529;SDS011;23374;52.758;6.872;2024-02-15T12:19:51;5.03;;;2.43;;
37529;SDS011;23374;52.758;6.872;2024-02-15T12:23:16;3.77;;;2.70;;
37529;SDS011;23374;52.758;6.872;2024-02-15T12:25:38;5.90;;;3.10;;
37529;SDS011;23374;52.758;6.872;2024-02-15T12:27:59;6.90;;;3.40;;
37529;SDS011;23374;52.758;6.872;2024-02-15T12:30:22;4.67;;;3.20;;
37529;SDS011;23374;52.758;6.872;2024-02-15T12:32:45;6.47;;;3.23;;
37529;SDS011;23374;52.758;6.872;2024-02-15T12:35:11;7.73;;;3.37;;
37529;SDS011;23374;52.758;6.872;2024-02-15T12:37:36;5.83;;;3.10;;
37529;SDS011;23374;52.758;6.872;2024-02-15T12:40:09;9.53;;;3.83;;
37529;SDS011;23374;52.758;6.872;2024-02-15T12:42:39;8.77;;;3.47;;
37529;SDS011;23374;52.758;6.872;2024-02-15T12:44:59;8.07;;;3.30;;
37529;SDS011;23374;52.758;6.872;2024-02-15T12:47:23;9.67;;;3.50;;
37529;SDS011;23374;52.758;6.872;2024-02-15T12:49:44;5.83;;;4.27;;
37529;SDS011;23374;52.758;6.872;2024-02-15T12:52:37;9.77;;;3.87;;
37529;SDS011;23374;52.758;6.872;2024-02-15T12:55:12;6.37;;;3.70;;
37529;SDS011;23374;52.758;6.872;2024-02-15T12:57:54;6.60;;;3.63;;
37529;SDS011;23374;52.758;6.872;2024-02-15T13:00:21;4.73;;;3.60;;
37529;SDS011;23374;52.758;6.872;2024-02-15T13:02:49;11.70;;;3.83;;
37529;SDS011;23374;52.758;6.872;2024-02-15T13:05:10;6.03;;;3.70;;
37529;SDS011;23374;52.758;6.872;2024-02-15T13:07:31;8.57;;;3.97;;
37529;SDS011;23374;52.758;6.872;2024-02-15T13:09:51;9.10;;;4.93;;
37529;SDS011;23374;52.758;6.872;2024-02-15T13:12:12;7.60;;;4.03;;
37529;SDS011;23374;52.758;6.872;2024-02-15T13:14:32;9.37;;;4.00;;
37529;SDS011;23374;52.758;6.872;2024-02-15T13:16:54;6.87;;;3.93;;
37529;SDS011;23374;52.758;6.872;2024-02-15T13:19:15;8.20;;;4.17;;
37529;SDS011;23374;52.758;6.872;2024-02-15T13:21:35;7.07;;;4.00;;
37529;SDS011;23374;52.758;6.872;2024-02-15T13:23:56;10.47;;;4.17;;
37529;SDS011;23374;52.758;6.872;2024-02-15T13:26:16;7.43;;;4.50;;
37529;SDS011;23374;52.758;6.872;2024-02-15T13:28:39;10.10;;;4.47;;
37529;SDS011;23374;52.758;6.872;2024-02-15T13:31:01;7.13;;;4.73;;
37529;SDS011;23374;52.758;6.872;2024-02-15T13:33:22;6.77;;;4.63;;
37529;SDS011;23374;52.758;6.872;2024-02-15T13:35:43;9.57;;;4.37;;
37529;SDS011;23374;52.758;6.872;2024-02-15T13:38:03;10.20;;;4.63;;
37529;SDS011;23374;52.758;6.872;2024-02-15T13:40:24;5.90;;;3.50;;
37529;SDS011;23374;52.758;6.872;2024-02-15T13:42:47;10.07;;;4.37;;
37529;SDS011;23374;52.758;6.872;2024-02-15T13:45:13;6.97;;;4.07;;
37529;SDS011;23374;52.758;6.872;2024-02-15T13:47:33;8.73;;;4.67;;
37529;SDS011;23374;52.758;6.872;2024-02-15T13:49:55;9.13;;;4.47;;
37529;SDS011;23374;52.758;6.872;2024-02-15T13:52:16;6.73;;;4.70;;
37529;SDS011;23374;52.758;6.872;2024-02-15T13:54:37;13.60;;;5.00;;
37529;SDS011;23374;52.758;6.872;2024-02-15T13:56:57;10.40;;;4.97;;
37529;SDS011;23374;52.758;6.872;2024-02-15T13:59:18;9.60;;;4.70;;
37529;SDS011;23374;52.758;6.872;2024-02-15T14:01:38;8.13;;;4.70;;
37529;SDS011;23374;52.758;6.872;2024-02-15T14:04:05;9.50;;;4.50;;
37529;SDS011;23374;52.758;6.872;2024-02-15T14:06:25;10.17;;;5.13;;
37529;SDS011;23374;52.758;6.872;2024-02-15T14:08:45;12.43;;;5.00;;
37529;SDS011;23374;52.758;6.872;2024-02-15T14:11:07;7.77;;;5.00;;
37529;SDS011;23374;52.758;6.872;2024-02-15T14:13:28;7.87;;;4.73;;
37529;SDS011;23374;52.758;6.872;2024-02-15T14:15:50;13.20;;;5.53;;
37529;SDS011;23374;52.758;6.872;2024-02-15T14:18:11;10.93;;;5.80;;
37529;SDS011;23374;52.758;6.872;2024-02-15T14:20:38;9.13;;;5.20;;